sensor_id;sensor_type;location;lat;lon;timestamp;temperature;humidity
15789;DHT22;59075;50.670;6.474;2022-09-13T05:01:15;22.70;99.90
15789;DHT22;59075;50.670;6.474;2022-09-13T05:06:10;22.70;99.90
15789;DHT22;59075;50.670;6.474;2022-09-13T05:08:37;22.70;99.90
15789;DHT22;59075;50.670;6.474;2022-09-13T05:11:05;22.60;99.90
15789;DHT22;59075;50.670;6.474;2022-09-13T05:13:33;22.60;99.90
15789;DHT22;59075;50.670;6.474;2022-09-13T05:16:02;22.60;99.90
15789;DHT22;59075;50.670;6.474;2022-09-13T05:18:32;22.70;99.90
15789;DHT22;59075;50.670;6.474;2022-09-13T05:21:00;22.60;99.90
15789;DHT22;59075;50.670;6.474;2022-09-13T05:23:28;22.70;99.90
15789;DHT22;59075;50.670;6.474;2022-09-13T05:25:57;22.60;99.90
15789;DHT22;59075;50.670;6.474;2022-09-13T05:28:26;22.60;99.90
15789;DHT22;59075;50.670;6.474;2022-09-13T05:30:54;22.60;99.90
15789;DHT22;59075;50.670;6.474;2022-09-13T05:35:50;22.60;99.90
15789;DHT22;59075;50.670;6.474;2022-09-13T05:38:17;22.60;99.90
15789;DHT22;59075;50.670;6.474;2022-09-13T05:40:44;22.60;99.90
15789;DHT22;59075;50.670;6.474;2022-09-13T05:43:11;22.70;99.90
15789;DHT22;59075;50.670;6.474;2022-09-13T05:45:38;22.60;99.90
15789;DHT22;59075;50.670;6.474;2022-09-13T05:48:04;22.60;99.90
15789;DHT22;59075;50.670;6.474;2022-09-13T05:50:35;22.60;99.90
15789;DHT22;59075;50.670;6.474;2022-09-13T05:55:31;22.70;99.90
15789;DHT22;59075;50.670;6.474;2022-09-13T05:57:58;22.60;99.90
15789;DHT22;59075;50.670;6.474;2022-09-13T06:00:26;22.60;99.90
15789;DHT22;59075;50.670;6.474;2022-09-13T06:05:20;22.60;99.90
15789;DHT22;59075;50.670;6.474;2022-09-13T06:07:46;22.60;99.90
15789;DHT22;59075;50.670;6.474;2022-09-13T06:10:15;22.60;99.90
15789;DHT22;59075;50.670;6.474;2022-09-13T06:12:42;22.60;99.90
15789;DHT22;59075;50.670;6.474;2022-09-13T06:15:09;22.60;99.90
15789;DHT22;59075;50.670;6.474;2022-09-13T06:17:36;22.60;99.90
15789;DHT22;59075;50.670;6.474;2022-09-13T06:20:03;22.60;99.90
15789;DHT22;59075;50.670;6.474;2022-09-13T06:22:30;22.60;99.90
15789;DHT22;59075;50.670;6.474;2022-09-13T06:24:59;22.60;99.90
15789;DHT22;59075;50.670;6.474;2022-09-13T06:27:28;22.60;99.90
15789;DHT22;59075;50.670;6.474;2022-09-13T06:29:55;22.60;99.90
15789;DHT22;59075;50.670;6.474;2022-09-13T06:32:21;22.60;99.90
15789;DHT22;59075;50.670;6.474;2022-09-13T06:34:48;22.60;99.90
15789;DHT22;59075;50.670;6.474;2022-09-13T06:37:14;22.60;99.90
15789;DHT22;59075;50.670;6.474;2022-09-13T06:39:41;22.60;99.90
15789;DHT22;59075;50.670;6.474;2022-09-13T06:42:08;22.60;99.90
15789;DHT22;59075;50.670;6.474;2022-09-13T06:44:36;22.60;99.90
15789;DHT22;59075;50.670;6.474;2022-09-13T06:47:03;22.60;99.90
15789;DHT22;59075;50.670;6.474;2022-09-13T06:49:30;22.60;99.90
15789;DHT22;59075;50.670;6.474;2022-09-13T06:51:56;22.60;99.90
15789;DHT22;59075;50.670;6.474;2022-09-13T07:01:45;22.70;99.90
15789;DHT22;59075;50.670;6.474;2022-09-13T07:04:14;22.60;99.90
15789;DHT22;59075;50.670;6.474;2022-09-13T07:06:44;22.60;99.90
15789;DHT22;59075;50.670;6.474;2022-09-13T07:09:13;22.60;99.90
15789;DHT22;59075;50.670;6.474;2022-09-13T07:11:41;22.60;99.90
15789;DHT22;59075;50.670;6.474;2022-09-13T07:14:12;22.60;99.90
15789;DHT22;59075;50.670;6.474;2022-09-13T07:16:39;22.60;99.90
15789;DHT22;59075;50.670;6.474;2022-09-13T07:19:11;22.60;99.90
15789;DHT22;59075;50.670;6.474;2022-09-13T07:21:38;22.60;99.90
15789;DHT22;59075;50.670;6.474;2022-09-13T07:24:05;22.70;99.90
15789;DHT22;59075;50.670;6.474;2022-09-13T07:26:32;22.60;99.90
15789;DHT22;59075;50.670;6.474;2022-09-13T07:29:00;22.60;99.90
15789;DHT22;59075;50.670;6.474;2022-09-13T07:31:30;22.60;99.90
15789;DHT22;59075;50.670;6.474;2022-09-13T07:33:58;22.70;99.90
15789;DHT22;59075;50.670;6.474;2022-09-13T07:36:27;22.60;99.90
15789;DHT22;59075;50.670;6.474;2022-09-13T07:38:58;22.60;99.90
15789;DHT22;59075;50.670;6.474;2022-09-13T07:41:26;22.60;99.90
15789;DHT22;59075;50.670;6.474;2022-09-13T07:43:54;22.60;99.90
15789;DHT22;59075;50.670;6.474;2022-09-13T07:48:50;22.60;99.90
15789;DHT22;59075;50.670;6.474;2022-09-13T07:51:19;22.60;99.90
15789;DHT22;59075;50.670;6.474;2022-09-13T07:53:49;22.70;99.90
15789;DHT22;59075;50.670;6.474;2022-09-13T07:56:18;22.70;99.90
15789;DHT22;59075;50.670;6.474;2022-09-13T07:58:48;22.70;99.90
15789;DHT22;59075;50.670;6.474;2022-09-13T08:01:16;22.70;99.90
15789;DHT22;59075;50.670;6.474;2022-09-13T08:03:44;22.70;99.90
15789;DHT22;59075;50.670;6.474;2022-09-13T08:06:11;22.70;99.90
15789;DHT22;59075;50.670;6.474;2022-09-13T08:08:37;22.70;99.90
15789;DHT22;59075;50.670;6.474;2022-09-13T08:11:06;21.60;99.90
15789;DHT22;59075;50.670;6.474;2022-09-13T08:16:01;22.80;99.90
15789;DHT22;59075;50.670;6.474;2022-09-13T08:20:56;22.80;99.90
15789;DHT22;59075;50.670;6.474;2022-09-13T08:23:23;22.80;99.90
15789;DHT22;59075;50.670;6.474;2022-09-13T08:25:50;22.80;99.90
15789;DHT22;59075;50.670;6.474;2022-09-13T08:28:19;22.80;99.90
15789;DHT22;59075;50.670;6.474;2022-09-13T08:30:47;22.80;99.90
15789;DHT22;59075;50.670;6.474;2022-09-13T08:35:48;22.90;99.90
15789;DHT22;59075;50.670;6.474;2022-09-13T08:38:15;22.90;99.90
15789;DHT22;59075;50.670;6.474;2022-09-13T08:40:45;22.90;99.90
15789;DHT22;59075;50.670;6.474;2022-09-13T08:43:19;22.90;99.90
15789;DHT22;59075;50.670;6.474;2022-09-13T08:48:20;22.90;99.90
15789;DHT22;59075;50.670;6.474;2022-09-13T08:50:51;22.90;99.90
15789;DHT22;59075;50.670;6.474;2022-09-13T08:53:21;22.90;99.90
15789;DHT22;59075;50.670;6.474;2022-09-13T08:55:57;22.90;99.90
15789;DHT22;59075;50.670;6.474;2022-09-13T08:58:44;22.90;99.90
15789;DHT22;59075;50.670;6.474;2022-09-13T09:01:22;22.90;99.90
15789;DHT22;59075;50.670;6.474;2022-09-13T09:03:55;22.90;99.90
15789;DHT22;59075;50.670;6.474;2022-09-13T09:06:23;22.90;99.90
15789;DHT22;59075;50.670;6.474;2022-09-13T09:08:53;22.90;99.90
15789;DHT22;59075;50.670;6.474;2022-09-13T09:11:28;22.90;99.90
15789;DHT22;59075;50.670;6.474;2022-09-13T09:14:04;22.90;99.90
15789;DHT22;59075;50.670;6.474;2022-09-13T09:16:36;22.90;99.90
15789;DHT22;59075;50.670;6.474;2022-09-13T09:19:12;22.90;99.90
15789;DHT22;59075;50.670;6.474;2022-09-13T09:21:42;23.00;99.90
15789;DHT22;59075;50.670;6.474;2022-09-13T09:26:41;23.00;99.90
15789;DHT22;59075;50.670;6.474;2022-09-13T09:29:16;23.00;99.90
15789;DHT22;59075;50.670;6.474;2022-09-13T09:31:52;23.00;99.90
15789;DHT22;59075;50.670;6.474;2022-09-13T09:34:30;23.00;99.90
15789;DHT22;59075;50.670;6.474;2022-09-13T09:37:12;23.00;99.90
15789;DHT22;59075;50.670;6.474;2022-09-13T09:39:41;23.10;99.90
15789;DHT22;59075;50.670;6.474;2022-09-13T09:42:12;23.10;99.90
15789;DHT22;59075;50.670;6.474;2022-09-13T09:44:43;23.10;99.90
15789;DHT22;59075;50.670;6.474;2022-09-13T09:47:16;23.10;99.90
15789;DHT22;59075;50.670;6.474;2022-09-13T09:49:46;23.10;99.90
15789;DHT22;59075;50.670;6.474;2022-09-13T09:52:34;23.10;99.90
15789;DHT22;59075;50.670;6.474;2022-09-13T09:55:13;23.10;99.90
15789;DHT22;59075;50.670;6.474;2022-09-13T09:57:53;23.10;99.90
15789;DHT22;59075;50.670;6.474;2022-09-13T10:00:24;23.10;99.90
15789;DHT22;59075;50.670;6.474;2022-09-13T10:02:53;23.10;99.90
15789;DHT22;59075;50.670;6.474;2022-09-13T10:05:22;23.10;99.90
15789;DHT22;59075;50.670;6.474;2022-09-13T10:07:56;23.10;99.90
15789;DHT22;59075;50.670;6.474;2022-09-13T10:10:25;23.10;99.90
15789;DHT22;59075;50.670;6.474;2022-09-13T10:12:56;23.10;99.90
15789;DHT22;59075;50.670;6.474;2022-09-13T10:15:27;23.10;99.90
15789;DHT22;59075;50.670;6.474;2022-09-13T10:18:15;23.10;99.90
15789;DHT22;59075;50.670;6.474;2022-09-13T10:20:51;23.20;99.90
15789;DHT22;59075;50.670;6.474;2022-09-13T10:23:27;23.10;99.90
15789;DHT22;59075;50.670;6.474;2022-09-13T10:26:00;23.10;99.90
15789;DHT22;59075;50.670;6.474;2022-09-13T10:28:29;23.10;99.90
15789;DHT22;59075;50.670;6.474;2022-09-13T10:31:02;23.20;99.90
15789;DHT22;59075;50.670;6.474;2022-09-13T10:33:32;23.20;99.90
15789;DHT22;59075;50.670;6.474;2022-09-13T10:36:01;23.20;99.90
15789;DHT22;59075;50.670;6.474;2022-09-13T10:38:30;23.20;99.90
15789;DHT22;59075;50.670;6.474;2022-09-13T10:40:58;23.30;99.90
15789;DHT22;59075;50.670;6.474;2022-09-13T10:43:29;23.20;99.90
15789;DHT22;59075;50.670;6.474;2022-09-13T10:45:56;23.20;99.90
15789;DHT22;59075;50.670;6.474;2022-09-13T10:48:28;23.30;99.90
15789;DHT22;59075;50.670;6.474;2022-09-13T10:51:04;23.30;99.90
15789;DHT22;59075;50.670;6.474;2022-09-13T10:53:35;23.30;99.90
15789;DHT22;59075;50.670;6.474;2022-09-13T11:04:26;23.40;99.90
15789;DHT22;59075;50.670;6.474;2022-09-13T11:09:57;23.40;99.90
15789;DHT22;59075;50.670;6.474;2022-09-13T11:12:32;23.40;99.90
15789;DHT22;59075;50.670;6.474;2022-09-13T11:15:12;23.40;99.90
15789;DHT22;59075;50.670;6.474;2022-09-13T11:18:05;23.40;99.90
15789;DHT22;59075;50.670;6.474;2022-09-13T11:20:43;23.40;99.90
15789;DHT22;59075;50.670;6.474;2022-09-13T11:23:34;23.40;99.90
15789;DHT22;59075;50.670;6.474;2022-09-13T11:26:12;23.40;99.90
15789;DHT22;59075;50.670;6.474;2022-09-13T11:28:53;23.40;99.90
15789;DHT22;59075;50.670;6.474;2022-09-13T11:31:31;23.40;99.90
15789;DHT22;59075;50.670;6.474;2022-09-13T11:34:15;23.40;99.90
15789;DHT22;59075;50.670;6.474;2022-09-13T11:36:58;23.40;99.90
15789;DHT22;59075;50.670;6.474;2022-09-13T11:39:31;23.40;99.90
15789;DHT22;59075;50.670;6.474;2022-09-13T11:42:17;23.40;99.90
15789;DHT22;59075;50.670;6.474;2022-09-13T11:47:46;23.40;99.90
15789;DHT22;59075;50.670;6.474;2022-09-13T11:50:36;23.40;99.90
15789;DHT22;59075;50.670;6.474;2022-09-13T11:53:22;23.40;99.90
15789;DHT22;59075;50.670;6.474;2022-09-13T11:55:58;23.40;99.90
15789;DHT22;59075;50.670;6.474;2022-09-13T11:58:30;23.40;99.90
15789;DHT22;59075;50.670;6.474;2022-09-13T12:01:00;23.40;99.90
15789;DHT22;59075;50.670;6.474;2022-09-13T12:03:32;23.40;99.90
15789;DHT22;59075;50.670;6.474;2022-09-13T12:06:04;23.40;99.90
15789;DHT22;59075;50.670;6.474;2022-09-13T12:08:38;23.40;99.90
15789;DHT22;59075;50.670;6.474;2022-09-13T12:11:10;23.50;99.90
15789;DHT22;59075;50.670;6.474;2022-09-13T12:13:42;23.50;99.90
15789;DHT22;59075;50.670;6.474;2022-09-13T12:16:15;23.50;99.90
15789;DHT22;59075;50.670;6.474;2022-09-13T12:18:45;23.50;99.90
15789;DHT22;59075;50.670;6.474;2022-09-13T12:21:15;23.50;99.90
15789;DHT22;59075;50.670;6.474;2022-09-13T12:23:50;23.50;99.90
15789;DHT22;59075;50.670;6.474;2022-09-13T12:26:22;23.50;99.90
15789;DHT22;59075;50.670;6.474;2022-09-13T12:28:53;23.50;99.90
15789;DHT22;59075;50.670;6.474;2022-09-13T12:31:23;23.50;99.90
15789;DHT22;59075;50.670;6.474;2022-09-13T12:36:39;23.50;99.90
15789;DHT22;59075;50.670;6.474;2022-09-13T12:39:24;23.50;99.90
15789;DHT22;59075;50.670;6.474;2022-09-13T12:42:09;23.50;99.90
15789;DHT22;59075;50.670;6.474;2022-09-13T12:47:50;23.50;99.90
15789;DHT22;59075;50.670;6.474;2022-09-13T12:50:50;23.50;99.90
15789;DHT22;59075;50.670;6.474;2022-09-13T12:56:40;23.60;99.90
15789;DHT22;59075;50.670;6.474;2022-09-13T12:59:34;23.60;99.90
15789;DHT22;59075;50.670;6.474;2022-09-13T13:02:27;23.60;99.90
15789;DHT22;59075;50.670;6.474;2022-09-13T13:07:25;23.60;99.90
15789;DHT22;59075;50.670;6.474;2022-09-13T13:12:30;23.60;99.90
15789;DHT22;59075;50.670;6.474;2022-09-13T13:14:58;23.60;99.90
15789;DHT22;59075;50.670;6.474;2022-09-13T13:17:45;23.60;99.90
15789;DHT22;59075;50.670;6.474;2022-09-13T13:23:03;23.60;99.90
15789;DHT22;59075;50.670;6.474;2022-09-13T13:25:34;23.60;99.90
15789;DHT22;59075;50.670;6.474;2022-09-13T13:31:09;23.60;99.90
15789;DHT22;59075;50.670;6.474;2022-09-13T13:33:46;23.70;99.90
15789;DHT22;59075;50.670;6.474;2022-09-13T13:36:24;23.70;99.90
15789;DHT22;59075;50.670;6.474;2022-09-13T13:38:52;23.70;99.90
15789;DHT22;59075;50.670;6.474;2022-09-13T13:41:48;23.70;99.90
15789;DHT22;59075;50.670;6.474;2022-09-13T13:48:08;23.60;99.90
15789;DHT22;59075;50.670;6.474;2022-09-13T13:51:14;23.60;99.90
15789;DHT22;59075;50.670;6.474;2022-09-13T13:53:44;23.60;99.90
15789;DHT22;59075;50.670;6.474;2022-09-13T13:56:24;23.60;99.90
15789;DHT22;59075;50.670;6.474;2022-09-13T14:01:24;23.70;99.90
15789;DHT22;59075;50.670;6.474;2022-09-13T14:07:06;23.70;99.90
15789;DHT22;59075;50.670;6.474;2022-09-13T14:09:39;23.60;99.90
15789;DHT22;59075;50.670;6.474;2022-09-13T14:12:23;23.70;99.90
15789;DHT22;59075;50.670;6.474;2022-09-13T14:15:18;23.60;99.90
15789;DHT22;59075;50.670;6.474;2022-09-13T14:21:00;23.60;99.90
15789;DHT22;59075;50.670;6.474;2022-09-13T14:23:27;23.60;99.90
15789;DHT22;59075;50.670;6.474;2022-09-13T14:25:55;23.70;99.90
15789;DHT22;59075;50.670;6.474;2022-09-13T14:28:23;23.70;99.90
15789;DHT22;59075;50.670;6.474;2022-09-13T14:30:52;23.70;99.90
15789;DHT22;59075;50.670;6.474;2022-09-13T14:33:24;23.70;99.90
15789;DHT22;59075;50.670;6.474;2022-09-13T14:36:02;23.70;99.90
15789;DHT22;59075;50.670;6.474;2022-09-13T14:38:31;23.70;99.90
15789;DHT22;59075;50.670;6.474;2022-09-13T14:41:02;23.60;99.90
15789;DHT22;59075;50.670;6.474;2022-09-13T14:46:05;23.70;99.90
15789;DHT22;59075;50.670;6.474;2022-09-13T14:51:08;23.60;99.90
15789;DHT22;59075;50.670;6.474;2022-09-13T14:53:39;23.60;99.90
15789;DHT22;59075;50.670;6.474;2022-09-13T14:56:11;23.60;99.90
15789;DHT22;59075;50.670;6.474;2022-09-13T14:58:43;23.60;99.90
15789;DHT22;59075;50.670;6.474;2022-09-13T15:01:12;23.60;99.90
15789;DHT22;59075;50.670;6.474;2022-09-13T15:03:41;23.70;99.90
15789;DHT22;59075;50.670;6.474;2022-09-13T15:06:23;23.70;99.90
15789;DHT22;59075;50.670;6.474;2022-09-13T15:08:51;23.60;99.90
15789;DHT22;59075;50.670;6.474;2022-09-13T15:11:29;23.70;99.90
15789;DHT22;59075;50.670;6.474;2022-09-13T15:14:01;23.60;99.90
15789;DHT22;59075;50.670;6.474;2022-09-13T15:16:30;23.60;99.90
15789;DHT22;59075;50.670;6.474;2022-09-13T15:19:25;23.70;99.90
15789;DHT22;59075;50.670;6.474;2022-09-13T15:24:45;23.70;99.90
15789;DHT22;59075;50.670;6.474;2022-09-13T15:29:48;23.70;99.90
15789;DHT22;59075;50.670;6.474;2022-09-13T15:32:20;23.60;99.90
15789;DHT22;59075;50.670;6.474;2022-09-13T15:34:48;23.70;99.90
15789;DHT22;59075;50.670;6.474;2022-09-13T15:37:16;23.60;99.90
15789;DHT22;59075;50.670;6.474;2022-09-13T15:39:46;23.60;99.90
15789;DHT22;59075;50.670;6.474;2022-09-13T15:42:14;23.60;99.90
15789;DHT22;59075;50.670;6.474;2022-09-13T15:44:41;23.60;99.90
15789;DHT22;59075;50.670;6.474;2022-09-13T15:47:10;23.60;99.90
15789;DHT22;59075;50.670;6.474;2022-09-13T15:49:38;23.60;99.90
15789;DHT22;59075;50.670;6.474;2022-09-13T15:52:06;23.60;99.90
15789;DHT22;59075;50.670;6.474;2022-09-13T15:54:37;23.60;99.90
15789;DHT22;59075;50.670;6.474;2022-09-13T15:57:06;23.60;99.90
15789;DHT22;59075;50.670;6.474;2022-09-13T15:59:34;23.60;99.90
15789;DHT22;59075;50.670;6.474;2022-09-13T16:02:08;23.60;99.90
15789;DHT22;59075;50.670;6.474;2022-09-13T16:04:40;23.60;99.90
15789;DHT22;59075;50.670;6.474;2022-09-13T16:07:08;23.60;99.90
15789;DHT22;59075;50.670;6.474;2022-09-13T16:09:37;23.50;99.90
15789;DHT22;59075;50.670;6.474;2022-09-13T16:12:04;23.60;99.90
15789;DHT22;59075;50.670;6.474;2022-09-13T16:14:31;23.50;99.90
15789;DHT22;59075;50.670;6.474;2022-09-13T16:16:59;23.50;99.90
15789;DHT22;59075;50.670;6.474;2022-09-13T16:19:27;23.50;99.90
15789;DHT22;59075;50.670;6.474;2022-09-13T16:21:54;23.50;99.90
15789;DHT22;59075;50.670;6.474;2022-09-13T16:24:20;23.50;99.90
15789;DHT22;59075;50.670;6.474;2022-09-13T16:26:48;23.50;99.90
15789;DHT22;59075;50.670;6.474;2022-09-13T16:29:15;23.60;99.90
15789;DHT22;59075;50.670;6.474;2022-09-13T16:31:42;23.60;99.90
15789;DHT22;59075;50.670;6.474;2022-09-13T16:34:08;23.50;99.90
15789;DHT22;59075;50.670;6.474;2022-09-13T16:36:35;23.50;99.90
15789;DHT22;59075;50.670;6.474;2022-09-13T16:39:02;23.50;99.90
15789;DHT22;59075;50.670;6.474;2022-09-13T16:41:29;23.50;99.90
15789;DHT22;59075;50.670;6.474;2022-09-13T16:43:57;23.50;99.90
15789;DHT22;59075;50.670;6.474;2022-09-13T16:46:23;23.50;99.90
15789;DHT22;59075;50.670;6.474;2022-09-13T16:48:51;23.50;99.90
15789;DHT22;59075;50.670;6.474;2022-09-13T16:51:20;23.50;99.90
15789;DHT22;59075;50.670;6.474;2022-09-13T16:53:48;23.50;99.90
15789;DHT22;59075;50.670;6.474;2022-09-13T16:56:17;23.50;99.90
15789;DHT22;59075;50.670;6.474;2022-09-13T16:58:46;23.50;99.90
15789;DHT22;59075;50.670;6.474;2022-09-13T17:01:16;23.50;99.90
15789;DHT22;59075;50.670;6.474;2022-09-13T17:03:43;23.50;99.90
15789;DHT22;59075;50.670;6.474;2022-09-13T17:06:12;23.50;99.90
15789;DHT22;59075;50.670;6.474;2022-09-13T17:08:41;23.50;99.90
15789;DHT22;59075;50.670;6.474;2022-09-13T17:11:10;23.50;99.90
15789;DHT22;59075;50.670;6.474;2022-09-13T17:13:38;23.50;99.90
15789;DHT22;59075;50.670;6.474;2022-09-13T17:16:06;23.50;99.90
15789;DHT22;59075;50.670;6.474;2022-09-13T17:18:34;23.50;99.90
15789;DHT22;59075;50.670;6.474;2022-09-13T17:23:28;23.50;99.90
15789;DHT22;59075;50.670;6.474;2022-09-13T17:25:55;23.50;99.90
15789;DHT22;59075;50.670;6.474;2022-09-13T17:28:21;23.50;99.90
15789;DHT22;59075;50.670;6.474;2022-09-13T17:30:48;23.50;99.90
15789;DHT22;59075;50.670;6.474;2022-09-13T17:33:15;23.50;99.90
15789;DHT22;59075;50.670;6.474;2022-09-13T17:35:43;23.50;99.90
15789;DHT22;59075;50.670;6.474;2022-09-13T17:38:10;23.50;99.90
15789;DHT22;59075;50.670;6.474;2022-09-13T17:40:39;23.50;99.90
15789;DHT22;59075;50.670;6.474;2022-09-13T17:43:07;23.50;99.90
15789;DHT22;59075;50.670;6.474;2022-09-13T17:45:35;23.50;99.90
15789;DHT22;59075;50.670;6.474;2022-09-13T17:48:02;23.50;99.90
15789;DHT22;59075;50.670;6.474;2022-09-13T17:50:28;23.50;99.90
15789;DHT22;59075;50.670;6.474;2022-09-13T17:52:57;23.50;99.90
15789;DHT22;59075;50.670;6.474;2022-09-13T17:55:24;23.50;99.90
15789;DHT22;59075;50.670;6.474;2022-09-13T17:57:51;23.50;99.90
15789;DHT22;59075;50.670;6.474;2022-09-13T18:00:20;23.50;99.90
15789;DHT22;59075;50.670;6.474;2022-09-13T18:02:46;23.50;99.90
15789;DHT22;59075;50.670;6.474;2022-09-13T18:05:13;23.50;99.90
15789;DHT22;59075;50.670;6.474;2022-09-13T18:07:40;23.50;99.90
15789;DHT22;59075;50.670;6.474;2022-09-13T18:10:09;23.50;99.90
15789;DHT22;59075;50.670;6.474;2022-09-13T18:12:35;23.50;99.90
15789;DHT22;59075;50.670;6.474;2022-09-13T18:15:02;23.50;99.90
15789;DHT22;59075;50.670;6.474;2022-09-13T18:17:29;23.50;99.90
15789;DHT22;59075;50.670;6.474;2022-09-13T18:22:23;23.40;99.90
15789;DHT22;59075;50.670;6.474;2022-09-13T18:24:50;23.50;99.90
15789;DHT22;59075;50.670;6.474;2022-09-13T18:27:18;23.40;99.90
15789;DHT22;59075;50.670;6.474;2022-09-13T18:29:45;23.40;99.90
15789;DHT22;59075;50.670;6.474;2022-09-13T18:32:12;23.50;99.90
15789;DHT22;59075;50.670;6.474;2022-09-13T18:34:42;23.40;99.90
15789;DHT22;59075;50.670;6.474;2022-09-13T18:37:10;23.40;99.90
15789;DHT22;59075;50.670;6.474;2022-09-13T18:39:37;23.40;99.90
15789;DHT22;59075;50.670;6.474;2022-09-13T18:42:04;23.50;99.90
15789;DHT22;59075;50.670;6.474;2022-09-13T18:44:32;23.40;99.90
15789;DHT22;59075;50.670;6.474;2022-09-13T18:46:58;23.40;99.90
15789;DHT22;59075;50.670;6.474;2022-09-13T18:51:54;23.40;99.90
15789;DHT22;59075;50.670;6.474;2022-09-13T18:54:20;23.40;99.90
15789;DHT22;59075;50.670;6.474;2022-09-13T18:56:47;23.40;99.90
15789;DHT22;59075;50.670;6.474;2022-09-13T19:01:43;23.40;99.90
15789;DHT22;59075;50.670;6.474;2022-09-13T19:04:11;23.40;99.90
15789;DHT22;59075;50.670;6.474;2022-09-13T19:06:40;23.40;99.90
15789;DHT22;59075;50.670;6.474;2022-09-13T19:09:07;23.40;99.90
15789;DHT22;59075;50.670;6.474;2022-09-13T19:14:02;23.40;99.90
15789;DHT22;59075;50.670;6.474;2022-09-13T19:16:29;23.40;99.90
15789;DHT22;59075;50.670;6.474;2022-09-13T19:18:58;23.40;99.90
15789;DHT22;59075;50.670;6.474;2022-09-13T19:21:26;23.40;99.90
15789;DHT22;59075;50.670;6.474;2022-09-13T19:23:54;23.40;99.90
15789;DHT22;59075;50.670;6.474;2022-09-13T19:26:24;23.40;99.90
15789;DHT22;59075;50.670;6.474;2022-09-13T19:28:52;23.40;99.90
15789;DHT22;59075;50.670;6.474;2022-09-13T19:31:22;23.40;99.90
15789;DHT22;59075;50.670;6.474;2022-09-13T19:33:50;23.40;99.90
15789;DHT22;59075;50.670;6.474;2022-09-13T19:36:21;23.40;99.90
15789;DHT22;59075;50.670;6.474;2022-09-13T19:38:48;23.40;99.90
15789;DHT22;59075;50.670;6.474;2022-09-13T19:41:16;23.40;99.90
15789;DHT22;59075;50.670;6.474;2022-09-13T19:46:14;23.40;99.90
15789;DHT22;59075;50.670;6.474;2022-09-13T19:48:43;23.40;99.90
15789;DHT22;59075;50.670;6.474;2022-09-13T19:51:13;23.40;99.90
15789;DHT22;59075;50.670;6.474;2022-09-13T19:56:11;23.30;99.90
15789;DHT22;59075;50.670;6.474;2022-09-13T19:58:38;23.30;99.90
15789;DHT22;59075;50.670;6.474;2022-09-13T20:01:06;23.30;99.90
15789;DHT22;59075;50.670;6.474;2022-09-13T20:03:34;23.40;99.90
15789;DHT22;59075;50.670;6.474;2022-09-13T20:08:29;23.30;99.90
15789;DHT22;59075;50.670;6.474;2022-09-13T20:11:01;23.30;99.90
15789;DHT22;59075;50.670;6.474;2022-09-13T20:13:28;23.30;99.90
15789;DHT22;59075;50.670;6.474;2022-09-13T20:15:55;23.40;99.90
15789;DHT22;59075;50.670;6.474;2022-09-13T20:18:22;23.30;99.90
15789;DHT22;59075;50.670;6.474;2022-09-13T20:20:49;23.30;99.90
15789;DHT22;59075;50.670;6.474;2022-09-13T20:23:21;23.30;99.90
15789;DHT22;59075;50.670;6.474;2022-09-13T20:25:48;23.30;99.90
15789;DHT22;59075;50.670;6.474;2022-09-13T20:28:16;23.30;99.90
15789;DHT22;59075;50.670;6.474;2022-09-13T20:30:51;23.30;99.90
15789;DHT22;59075;50.670;6.474;2022-09-13T20:33:18;23.40;99.90
15789;DHT22;59075;50.670;6.474;2022-09-13T20:35:45;23.30;99.90
15789;DHT22;59075;50.670;6.474;2022-09-13T20:38:12;23.30;99.90
15789;DHT22;59075;50.670;6.474;2022-09-13T20:40:39;23.30;99.90
15789;DHT22;59075;50.670;6.474;2022-09-13T20:43:05;23.30;99.90
15789;DHT22;59075;50.670;6.474;2022-09-13T20:45:33;23.30;99.90
15789;DHT22;59075;50.670;6.474;2022-09-13T20:48:00;23.30;99.90
15789;DHT22;59075;50.670;6.474;2022-09-13T20:50:27;23.30;99.90
15789;DHT22;59075;50.670;6.474;2022-09-13T20:52:53;23.30;99.90
15789;DHT22;59075;50.670;6.474;2022-09-13T20:55:22;23.30;99.90
